createdAt,value
2023-05-20T00:01:50.274Z,13.40
2023-05-20T00:04:17.445Z,13.40
2023-05-20T00:06:44.540Z,13.30
2023-05-20T00:09:11.817Z,13.30
2023-05-20T00:11:38.981Z,13.40
2023-05-20T00:14:06.407Z,13.30
2023-05-20T00:16:33.662Z,13.30
2023-05-20T00:19:01.055Z,13.20
2023-05-20T00:21:28.249Z,13.30
2023-05-20T00:23:56.464Z,13.20
2023-05-20T00:26:23.576Z,13.20
2023-05-20T00:28:54.995Z,13.30
2023-05-20T00:31:22.312Z,13.30
2023-05-20T00:33:49.557Z,13.30
2023-05-20T00:36:16.723Z,13.20
2023-05-20T00:38:43.897Z,13.20
2023-05-20T00:41:11.021Z,13.10
2023-05-20T00:43:38.111Z,13.00
2023-05-20T00:46:05.504Z,13.00
2023-05-20T00:48:41.892Z,13.10
2023-05-20T00:51:11.091Z,13.10
2023-05-20T00:53:38.795Z,12.90
2023-05-20T00:56:07.546Z,12.80
2023-05-20T00:58:38.694Z,12.70
2023-05-20T01:01:06.623Z,12.70
2023-05-20T01:03:34.405Z,12.70
2023-05-20T01:06:02.987Z,12.70
2023-05-20T01:08:30.344Z,12.60
2023-05-20T01:11:25.203Z,12.70
2023-05-20T01:13:59.111Z,12.60
2023-05-20T01:16:27.828Z,12.60
2023-05-20T01:18:57.528Z,12.50
2023-05-20T01:21:25.111Z,12.50
2023-05-20T01:23:52.372Z,12.40
2023-05-20T01:26:19.613Z,12.30
2023-05-20T01:28:46.777Z,12.30
2023-05-20T01:31:38.099Z,12.20
2023-05-20T01:34:05.680Z,12.10
2023-05-20T01:36:33.979Z,12.00
2023-05-20T01:39:02.533Z,12.00
2023-05-20T01:41:30.261Z,12.10
2023-05-20T01:43:57.608Z,12.10
2023-05-20T01:46:24.798Z,12.10
2023-05-20T01:48:53.016Z,12.20
2023-05-20T01:51:20.128Z,12.30
2023-05-20T01:53:47.226Z,12.40
2023-05-20T01:56:14.579Z,12.40
2023-05-20T01:58:41.753Z,12.50
2023-05-20T02:01:08.976Z,12.50
2023-05-20T02:03:36.072Z,12.50
2023-05-20T02:06:03.214Z,12.50
2023-05-20T02:08:30.395Z,12.40
2023-05-20T02:10:57.502Z,12.40
2023-05-20T02:13:24.591Z,12.40
2023-05-20T02:15:51.787Z,12.50
2023-05-20T02:18:20.130Z,12.50
2023-05-20T02:20:47.214Z,12.50
2023-05-20T02:23:14.658Z,12.50
2023-05-20T02:25:41.930Z,12.50
2023-05-20T02:28:10.948Z,12.60
2023-05-20T02:30:38.962Z,12.60
2023-05-20T02:33:07.174Z,12.70
2023-05-20T02:35:34.556Z,12.80
2023-05-20T02:38:01.968Z,12.80
2023-05-20T02:40:29.093Z,12.80
2023-05-20T02:42:56.196Z,12.80
2023-05-20T02:45:23.303Z,12.80
2023-05-20T02:47:50.534Z,12.80
2023-05-20T02:50:17.751Z,12.70
2023-05-20T02:52:45.688Z,12.70
2023-05-20T02:55:13.535Z,12.70
2023-05-20T02:57:41.131Z,12.70
2023-05-20T03:00:11.162Z,12.70
2023-05-20T03:02:38.419Z,12.70
2023-05-20T03:05:06.074Z,12.60
2023-05-20T03:07:36.316Z,12.60
2023-05-20T03:10:04.998Z,12.50
2023-05-20T03:12:32.102Z,12.40
2023-05-20T03:15:00.415Z,12.40
2023-05-20T03:17:27.961Z,12.50
2023-05-20T03:19:55.075Z,12.50
2023-05-20T03:22:23.198Z,12.60
2023-05-20T03:24:50.435Z,12.50
2023-05-20T03:27:17.480Z,12.60
2023-05-20T03:29:45.070Z,12.50
2023-05-20T03:32:12.299Z,12.50
2023-05-20T03:34:39.533Z,12.50
2023-05-20T03:37:06.757Z,12.50
2023-05-20T03:39:34.230Z,12.60
2023-05-20T03:42:01.415Z,12.60
2023-05-20T03:44:28.596Z,12.60
2023-05-20T03:46:55.692Z,12.60
2023-05-20T03:49:23.165Z,12.60
2023-05-20T03:51:50.247Z,12.60
2023-05-20T03:54:17.515Z,12.70
2023-05-20T03:56:49.483Z,12.70
2023-05-20T03:59:16.601Z,12.80
2023-05-20T04:01:43.634Z,12.80
2023-05-20T04:04:11.267Z,12.80
2023-05-20T04:06:38.356Z,12.90
2023-05-20T04:09:06.063Z,12.80
2023-05-20T04:11:33.289Z,12.80
2023-05-20T04:14:00.433Z,12.70
2023-05-20T04:16:29.728Z,12.80
2023-05-20T04:18:59.281Z,12.80
2023-05-20T04:21:26.478Z,12.70
2023-05-20T04:23:53.906Z,12.70
2023-05-20T04:26:21.796Z,12.80
2023-05-20T04:28:51.120Z,12.90
2023-05-20T04:31:18.772Z,12.80
2023-05-20T04:33:46.727Z,12.90
2023-05-20T04:36:16.380Z,13.00
2023-05-20T04:38:44.734Z,13.00
2023-05-20T04:41:12.033Z,13.10
2023-05-20T04:43:40.434Z,13.10
2023-05-20T04:46:08.907Z,13.20
2023-05-20T04:48:36.748Z,13.40
2023-05-20T04:51:04.311Z,13.30
2023-05-20T04:53:33.936Z,13.20
2023-05-20T04:56:01.660Z,13.20
2023-05-20T04:58:30.286Z,13.20
2023-05-20T05:00:57.990Z,13.40
2023-05-20T05:03:26.353Z,13.50
2023-05-20T05:05:57.791Z,13.60
2023-05-20T05:08:26.461Z,13.50
2023-05-20T05:10:54.020Z,13.40
2023-05-20T05:13:21.244Z,13.50
2023-05-20T05:15:49.089Z,13.70
2023-05-20T05:18:18.647Z,13.80
2023-05-20T05:20:46.515Z,13.90
2023-05-20T05:23:14.229Z,13.90
2023-05-20T05:25:41.773Z,13.80
2023-05-20T05:28:08.980Z,13.90
2023-05-20T05:30:37.570Z,14.10
2023-05-20T05:33:04.776Z,13.90
2023-05-20T05:35:32.953Z,13.90
2023-05-20T05:38:00.419Z,13.80
2023-05-20T05:40:27.878Z,13.90
2023-05-20T05:42:54.924Z,13.90
2023-05-20T05:45:22.331Z,13.80
2023-05-20T05:47:49.573Z,13.80
2023-05-20T05:50:16.800Z,13.70
2023-05-20T05:52:43.887Z,13.80
2023-05-20T05:55:11.828Z,13.90
2023-05-20T05:57:39.541Z,14.10
2023-05-20T06:00:08.376Z,13.90
2023-05-20T06:02:45.789Z,14.00
2023-05-20T06:05:18.816Z,14.10
2023-05-20T06:07:46.516Z,14.20
2023-05-20T06:10:13.871Z,14.50
2023-05-20T06:12:41.130Z,14.70
2023-05-20T06:15:09.029Z,14.70
2023-05-20T06:17:36.354Z,14.90
2023-05-20T06:20:04.387Z,15.00
2023-05-20T06:22:31.554Z,14.70
2023-05-20T06:25:00.663Z,14.80
2023-05-20T06:27:28.553Z,15.00
2023-05-20T06:29:55.720Z,15.10
2023-05-20T06:32:23.444Z,15.10
2023-05-20T06:34:51.889Z,15.20
2023-05-20T06:37:19.063Z,15.30
2023-05-20T06:39:47.688Z,15.40
2023-05-20T06:42:15.196Z,15.20
2023-05-20T06:44:48.289Z,15.40
2023-05-20T06:47:36.728Z,15.50
2023-05-20T06:50:04.600Z,15.60
2023-05-20T06:52:32.108Z,15.70
2023-05-20T06:54:59.206Z,15.60
2023-05-20T06:57:26.835Z,15.70
2023-05-20T06:59:53.954Z,15.90
2023-05-20T07:02:23.056Z,16.00
2023-05-20T07:04:50.346Z,15.70
2023-05-20T07:07:18.052Z,16.00
2023-05-20T07:09:46.416Z,16.10
2023-05-20T07:12:13.665Z,16.40
2023-05-20T07:14:40.900Z,16.50
2023-05-20T07:17:08.007Z,16.60
2023-05-20T07:19:35.191Z,16.40
2023-05-20T07:22:02.714Z,16.50
2023-05-20T07:24:53.097Z,16.60
2023-05-20T07:27:20.519Z,16.70
2023-05-20T07:29:47.614Z,16.80
2023-05-20T07:32:15.978Z,17.10
2023-05-20T07:34:43.883Z,16.80
2023-05-20T07:37:12.885Z,17.10
2023-05-20T07:39:40.693Z,17.10
2023-05-20T07:42:07.909Z,17.30
2023-05-20T07:44:36.664Z,17.60
2023-05-20T07:47:05.649Z,18.00
2023-05-20T07:49:34.013Z,18.60
2023-05-20T07:52:03.019Z,18.90
2023-05-20T07:54:31.169Z,18.80
2023-05-20T07:57:00.321Z,18.70
2023-05-20T07:59:29.450Z,18.80
2023-05-20T08:01:57.214Z,18.90
2023-05-20T08:04:27.785Z,19.10
2023-05-20T08:06:56.915Z,18.60
2023-05-20T08:09:38.813Z,18.60
2023-05-20T08:12:07.817Z,18.60
2023-05-20T08:14:35.210Z,18.60
2023-05-20T08:17:03.727Z,18.60
2023-05-20T08:22:14.815Z,19.10
2023-05-20T08:24:42.422Z,19.10
2023-05-20T08:27:10.698Z,19.00
2023-05-20T08:29:38.110Z,19.30
2023-05-20T08:32:05.865Z,19.20
2023-05-20T08:34:35.062Z,18.90
2023-05-20T08:37:02.969Z,18.90
2023-05-20T08:39:30.112Z,19.30
2023-05-20T08:41:58.878Z,19.60
2023-05-20T08:44:28.202Z,19.50
2023-05-20T08:46:57.274Z,19.50
2023-05-20T08:49:24.866Z,19.70
2023-05-20T08:51:52.648Z,19.20
2023-05-20T08:54:29.952Z,19.50
2023-05-20T08:56:57.524Z,19.70
2023-05-20T08:59:24.754Z,20.00
2023-05-20T09:01:51.895Z,20.20
2023-05-20T09:04:18.974Z,19.90
2023-05-20T09:06:47.171Z,20.30
2023-05-20T09:09:15.811Z,20.30
2023-05-20T09:11:43.685Z,20.00
2023-05-20T09:14:10.841Z,20.50
2023-05-20T09:16:41.355Z,20.60
2023-05-20T09:19:09.894Z,20.40
2023-05-20T09:21:39.026Z,20.60
2023-05-20T09:24:06.621Z,20.90
2023-05-20T09:26:33.906Z,20.80
2023-05-20T09:29:00.981Z,20.90
2023-05-20T09:31:34.079Z,20.70
2023-05-20T09:34:02.082Z,20.70
2023-05-20T09:36:34.397Z,20.50
2023-05-20T09:39:04.075Z,20.60
2023-05-20T09:41:49.630Z,20.80
2023-05-20T09:44:18.381Z,20.70
2023-05-20T09:46:46.611Z,20.80
2023-05-20T09:49:14.613Z,20.50
2023-05-20T09:51:44.165Z,20.90
2023-05-20T09:54:13.922Z,20.90
2023-05-20T09:56:42.727Z,20.80
2023-05-20T09:59:11.858Z,20.90
2023-05-20T10:01:38.949Z,21.00
2023-05-20T10:04:08.118Z,20.80
2023-05-20T10:07:00.364Z,20.60
2023-05-20T10:09:42.530Z,20.80
2023-05-20T10:12:33.312Z,20.80
2023-05-20T10:16:13.951Z,20.90
2023-05-20T10:18:59.819Z,20.90
2023-05-20T10:21:26.958Z,20.50
2023-05-20T10:23:54.309Z,20.40
2023-05-20T10:26:22.420Z,20.70
2023-05-20T10:28:49.695Z,20.80
2023-05-20T10:31:24.276Z,20.90
2023-05-20T10:33:54.163Z,20.80
2023-05-20T10:36:27.740Z,20.70
2023-05-20T10:39:00.742Z,21.00
2023-05-20T10:41:29.532Z,20.80
2023-05-20T10:44:01.934Z,21.50
2023-05-20T10:46:38.000Z,21.20
2023-05-20T10:49:26.727Z,21.10
2023-05-20T10:51:55.602Z,21.10
2023-05-20T10:54:23.437Z,21.20
2023-05-20T10:56:54.603Z,21.30
2023-05-20T10:59:24.967Z,21.70
2023-05-20T11:01:52.415Z,22.00
2023-05-20T11:04:19.799Z,21.50
2023-05-20T11:06:54.159Z,21.70
2023-05-20T11:09:23.242Z,22.10
2023-05-20T11:11:54.288Z,22.10
2023-05-20T11:14:22.323Z,22.00
2023-05-20T11:16:54.331Z,22.40
2023-05-20T11:19:21.724Z,22.70
2023-05-20T11:21:49.209Z,23.00
2023-05-20T11:24:26.348Z,22.90
2023-05-20T11:26:55.946Z,22.90
2023-05-20T11:29:23.232Z,22.90
2023-05-20T11:31:53.737Z,22.70
2023-05-20T11:34:26.803Z,23.10
2023-05-20T11:36:58.761Z,23.00
2023-05-20T11:39:30.105Z,22.80
2023-05-20T11:41:58.220Z,22.70
2023-05-20T11:44:26.097Z,23.30
2023-05-20T11:47:01.556Z,23.70
2023-05-20T11:49:29.202Z,24.40
2023-05-20T11:51:57.231Z,25.20
2023-05-20T11:54:25.423Z,25.70
2023-05-20T11:56:55.852Z,26.30
2023-05-20T11:59:25.203Z,27.00
2023-05-20T12:01:52.697Z,27.70
2023-05-20T12:04:20.030Z,28.60
2023-05-20T12:06:47.309Z,29.60
2023-05-20T12:09:14.636Z,31.00
2023-05-20T12:11:42.321Z,29.70
2023-05-20T12:14:09.884Z,28.10
2023-05-20T12:16:38.226Z,28.10
2023-05-20T12:19:05.948Z,29.20
2023-05-20T12:21:33.088Z,31.30
2023-05-20T12:24:01.279Z,31.80
2023-05-20T12:26:30.075Z,31.20
2023-05-20T12:28:57.905Z,30.60
2023-05-20T12:31:26.186Z,31.20
2023-05-20T12:33:53.591Z,31.80
2023-05-20T12:36:20.742Z,34.10
2023-05-20T12:38:48.151Z,33.40
2023-05-20T12:41:15.516Z,33.90
2023-05-20T12:43:42.863Z,35.50
2023-05-20T12:46:10.487Z,34.90
2023-05-20T12:48:37.760Z,33.80
2023-05-20T12:51:05.252Z,32.60
2023-05-20T12:53:32.358Z,29.20
2023-05-20T12:55:59.561Z,28.80
2023-05-20T12:58:26.756Z,27.80
2023-05-20T13:00:54.260Z,27.10
2023-05-20T13:03:21.653Z,28.90
2023-05-20T13:05:48.853Z,31.90
2023-05-20T13:08:16.107Z,32.90
2023-05-20T13:10:43.393Z,30.90
2023-05-20T13:13:10.688Z,31.20
2023-05-20T13:15:38.303Z,30.80
2023-05-20T13:18:07.043Z,32.60
2023-05-20T13:20:35.031Z,33.20
2023-05-20T13:23:02.397Z,31.60
2023-05-20T13:25:29.717Z,31.10
2023-05-20T13:27:56.948Z,30.20
2023-05-20T13:30:24.056Z,31.50
2023-05-20T13:32:52.191Z,32.10
2023-05-20T13:35:19.496Z,31.20
2023-05-20T13:37:46.614Z,31.20
2023-05-20T13:40:13.997Z,30.70
2023-05-20T13:42:41.191Z,29.20
2023-05-20T13:45:08.723Z,28.70
2023-05-20T13:47:36.292Z,28.20
2023-05-20T13:50:04.002Z,27.40
2023-05-20T13:52:31.169Z,27.00
2023-05-20T13:54:58.323Z,26.40
2023-05-20T13:57:25.392Z,26.30
2023-05-20T13:59:52.739Z,25.50
2023-05-20T14:02:20.010Z,25.50
2023-05-20T14:04:47.320Z,27.60
2023-05-20T14:07:14.670Z,27.10
2023-05-20T14:09:41.914Z,26.80
2023-05-20T14:12:09.209Z,26.50
2023-05-20T14:14:36.535Z,26.40
2023-05-20T14:17:03.932Z,25.70
2023-05-20T14:19:31.236Z,25.40
2023-05-20T14:22:01.719Z,24.90
2023-05-20T14:24:29.175Z,24.50
2023-05-20T14:26:56.449Z,23.90
2023-05-20T14:29:23.497Z,23.70
2023-05-20T14:31:50.654Z,23.80
2023-05-20T14:34:17.863Z,23.60
2023-05-20T14:36:45.116Z,23.30
2023-05-20T14:39:12.199Z,23.00
2023-05-20T14:41:39.329Z,23.30
2023-05-20T14:44:06.743Z,23.70
2023-05-20T14:46:33.996Z,23.90
2023-05-20T14:49:01.483Z,23.50
2023-05-20T14:51:28.567Z,23.60
2023-05-20T14:53:55.720Z,23.30
2023-05-20T14:56:23.162Z,23.50
2023-05-20T14:58:50.214Z,23.20
2023-05-20T15:01:17.703Z,23.00
2023-05-20T15:03:44.837Z,22.90
2023-05-20T15:06:11.977Z,23.00
2023-05-20T15:08:39.027Z,22.90
2023-05-20T15:11:06.300Z,22.80
2023-05-20T15:13:33.377Z,22.70
2023-05-20T15:16:00.836Z,22.80
2023-05-20T15:18:27.912Z,22.70
2023-05-20T15:20:54.983Z,23.00
2023-05-20T15:23:22.018Z,23.20
2023-05-20T15:25:50.303Z,23.30
2023-05-20T15:28:19.742Z,23.20
2023-05-20T15:30:52.753Z,23.40
2023-05-20T15:33:20.280Z,23.60
2023-05-20T15:35:47.652Z,23.50
2023-05-20T15:38:16.428Z,23.60
2023-05-20T15:40:43.782Z,23.10
2023-05-20T15:43:10.871Z,23.20
2023-05-20T15:45:37.946Z,22.90
2023-05-20T15:48:05.232Z,22.70
2023-05-20T15:50:32.518Z,22.80
2023-05-20T15:52:59.670Z,22.60
2023-05-20T15:55:26.752Z,22.70
2023-05-20T15:57:53.876Z,22.70
2023-05-20T16:00:23.383Z,22.70
2023-05-20T16:02:50.842Z,22.90
2023-05-20T16:05:18.079Z,23.30
2023-05-20T16:07:46.852Z,23.10
2023-05-20T16:10:13.922Z,23.00
2023-05-20T16:12:41.276Z,22.70
2023-05-20T16:15:10.089Z,22.50
2023-05-20T16:17:38.424Z,22.90
2023-05-20T16:20:07.068Z,23.90
2023-05-20T16:22:35.284Z,26.00
2023-05-20T16:25:03.597Z,27.70
2023-05-20T16:27:31.051Z,29.20
2023-05-20T16:29:58.137Z,29.50
2023-05-20T16:32:25.219Z,27.80
2023-05-20T16:34:52.244Z,28.30
2023-05-20T16:37:19.354Z,27.40
2023-05-20T16:39:46.536Z,26.60
2023-05-20T16:42:13.625Z,25.40
2023-05-20T16:44:40.693Z,25.00
2023-05-20T16:47:11.369Z,24.40
2023-05-20T16:49:38.476Z,23.60
2023-05-20T16:52:06.292Z,23.30
2023-05-20T16:54:36.324Z,23.40
2023-05-20T16:57:04.701Z,23.60
2023-05-20T16:59:35.080Z,24.30
2023-05-20T17:02:02.348Z,25.50
2023-05-20T17:04:29.543Z,27.30
2023-05-20T17:06:57.359Z,27.10
2023-05-20T17:09:24.420Z,28.30
2023-05-20T17:11:52.972Z,28.50
2023-05-20T17:14:20.073Z,29.30
2023-05-20T17:16:47.450Z,29.40
2023-05-20T17:19:14.776Z,30.00
2023-05-20T17:21:42.034Z,29.70
2023-05-20T17:24:09.113Z,28.10
2023-05-20T17:26:36.361Z,26.90
2023-05-20T17:29:03.725Z,26.60
2023-05-20T17:31:30.932Z,26.10
2023-05-20T17:33:58.055Z,27.10
2023-05-20T17:36:25.483Z,27.20
2023-05-20T17:38:52.695Z,26.80
2023-05-20T17:41:19.809Z,26.20
2023-05-20T17:43:46.919Z,25.50
2023-05-20T17:46:14.092Z,25.00
2023-05-20T17:48:41.516Z,24.10
2023-05-20T17:51:08.720Z,23.70
2023-05-20T17:53:35.839Z,23.40
2023-05-20T17:56:03.368Z,23.00
2023-05-20T17:58:31.310Z,23.00
2023-05-20T18:00:58.373Z,22.40
2023-05-20T18:03:25.663Z,22.10
2023-05-20T18:05:55.054Z,21.50
2023-05-20T18:08:25.235Z,21.10
2023-05-20T18:10:52.794Z,21.00
2023-05-20T18:13:19.880Z,20.70
2023-05-20T18:15:47.094Z,20.40
2023-05-20T18:18:14.241Z,20.20
2023-05-20T18:20:41.375Z,20.00
2023-05-20T18:23:08.448Z,20.00
2023-05-20T18:25:35.578Z,20.00
2023-05-20T18:28:03.158Z,19.80
2023-05-20T18:30:30.259Z,19.80
2023-05-20T18:32:57.522Z,19.40
2023-05-20T18:35:24.615Z,19.20
2023-05-20T18:37:51.709Z,19.20
2023-05-20T18:40:20.836Z,19.10
2023-05-20T18:42:48.046Z,19.00
2023-05-20T18:45:15.600Z,18.90
2023-05-20T18:47:42.803Z,18.70
2023-05-20T18:50:11.239Z,18.60
2023-05-20T18:52:38.262Z,18.40
2023-05-20T18:55:06.202Z,18.40
2023-05-20T18:57:33.277Z,18.30
2023-05-20T19:00:00.367Z,18.20
2023-05-20T19:02:27.511Z,18.10
2023-05-20T19:04:54.576Z,17.90
2023-05-20T19:07:22.823Z,17.90
2023-05-20T19:09:51.963Z,17.80
2023-05-20T19:12:19.053Z,17.70
2023-05-20T19:14:46.606Z,17.60
2023-05-20T19:17:14.243Z,17.60
2023-05-20T19:19:41.370Z,17.60
2023-05-20T19:22:08.674Z,17.60
2023-05-20T19:24:36.297Z,17.50
2023-05-20T19:27:03.742Z,17.40
2023-05-20T19:29:31.313Z,17.30
2023-05-20T19:31:58.743Z,17.20
2023-05-20T19:34:26.203Z,17.20
2023-05-20T19:36:53.409Z,17.20
2023-05-20T19:39:20.686Z,17.10
2023-05-20T19:41:48.708Z,17.00
2023-05-20T19:44:15.927Z,16.90
2023-05-20T19:46:43.042Z,16.90
2023-05-20T19:49:10.174Z,16.80
2023-05-20T19:51:37.683Z,16.80
2023-05-20T19:54:04.921Z,16.70
2023-05-20T19:56:32.260Z,16.70
2023-05-20T19:59:01.785Z,16.70
2023-05-20T20:01:29.404Z,16.60
2023-05-20T20:03:56.678Z,16.50
2023-05-20T20:06:23.923Z,16.50
2023-05-20T20:08:51.161Z,16.40
2023-05-20T20:11:18.375Z,16.40
2023-05-20T20:13:46.020Z,16.40
2023-05-20T20:16:13.320Z,16.30
2023-05-20T20:18:40.553Z,16.30
2023-05-20T20:21:09.236Z,16.20
2023-05-20T20:23:38.020Z,16.20
2023-05-20T20:26:07.658Z,16.10
2023-05-20T20:28:34.800Z,16.10
2023-05-20T20:31:01.992Z,16.10
2023-05-20T20:33:29.087Z,16.00
2023-05-20T20:35:56.931Z,16.00
2023-05-20T20:38:24.194Z,15.90
2023-05-20T20:40:53.551Z,15.90
2023-05-20T20:43:21.491Z,15.90
2023-05-20T20:45:52.985Z,15.80
2023-05-20T20:48:20.291Z,15.80
2023-05-20T20:50:48.348Z,15.70
2023-05-20T20:53:17.095Z,15.70
2023-05-20T20:55:46.239Z,15.60
2023-05-20T20:58:15.104Z,15.60
2023-05-20T21:00:45.038Z,15.50
2023-05-20T21:03:13.322Z,15.50
2023-05-20T21:05:40.639Z,15.50
2023-05-20T21:08:08.570Z,15.50
2023-05-20T21:10:37.175Z,15.50
2023-05-20T21:13:04.414Z,15.50
2023-05-20T21:15:31.482Z,15.50
2023-05-20T21:17:58.659Z,15.40
2023-05-20T21:20:25.794Z,15.40
2023-05-20T21:22:52.837Z,15.30
2023-05-20T21:25:19.993Z,15.30
2023-05-20T21:27:47.273Z,15.30
2023-05-20T21:30:15.906Z,15.20
2023-05-20T21:32:43.149Z,15.20
2023-05-20T21:35:10.411Z,15.10
2023-05-20T21:37:37.561Z,15.10
2023-05-20T21:40:05.592Z,15.00
2023-05-20T21:42:32.760Z,15.00
2023-05-20T21:44:59.857Z,15.00
2023-05-20T21:47:27.047Z,14.90
2023-05-20T21:49:54.104Z,14.90
2023-05-20T21:52:21.180Z,14.90
2023-05-20T21:54:48.240Z,14.80
2023-05-20T21:57:15.342Z,14.70
2023-05-20T21:59:42.460Z,14.70
2023-05-20T22:02:09.513Z,14.70
2023-05-20T22:04:37.343Z,14.60
2023-05-20T22:07:04.579Z,14.60
2023-05-20T22:09:31.779Z,14.50
2023-05-20T22:11:59.829Z,14.40
2023-05-20T22:14:27.453Z,14.30
2023-05-20T22:16:55.692Z,14.30
2023-05-20T22:19:23.181Z,14.20
2023-05-20T22:21:51.190Z,14.10
2023-05-20T22:24:18.483Z,14.10
2023-05-20T22:26:45.782Z,14.00
2023-05-20T22:29:12.907Z,14.00
2023-05-20T22:31:40.086Z,14.00
2023-05-20T22:34:07.106Z,14.00
2023-05-20T22:36:34.376Z,13.90
2023-05-20T22:39:03.130Z,13.90
2023-05-20T22:41:30.915Z,13.90
2023-05-20T22:43:58.352Z,13.80
2023-05-20T22:46:26.006Z,13.80
2023-05-20T22:48:53.355Z,13.70
2023-05-20T22:51:21.713Z,13.70
2023-05-20T22:53:49.221Z,13.70
2023-05-20T22:56:17.143Z,13.60
2023-05-20T22:58:45.764Z,13.60
2023-05-20T23:01:13.374Z,13.50
2023-05-20T23:03:40.533Z,13.50
2023-05-20T23:06:07.807Z,13.40
2023-05-20T23:08:34.831Z,13.40
2023-05-20T23:11:01.875Z,13.40
2023-05-20T23:13:28.962Z,13.40
2023-05-20T23:15:56.030Z,13.40
2023-05-20T23:18:23.319Z,13.30
2023-05-20T23:20:50.473Z,13.30
2023-05-20T23:23:20.753Z,13.30
2023-05-20T23:25:55.140Z,13.20
2023-05-20T23:28:22.244Z,13.20
2023-05-20T23:30:49.514Z,13.10
2023-05-20T23:33:17.456Z,13.00
2023-05-20T23:35:44.901Z,13.00
2023-05-20T23:38:11.933Z,13.00
2023-05-20T23:40:38.965Z,12.90
2023-05-20T23:43:06.064Z,13.00
2023-05-20T23:45:33.250Z,13.00
2023-05-20T23:48:01.526Z,13.00
2023-05-20T23:50:28.592Z,13.00
2023-05-20T23:52:55.757Z,13.10
2023-05-20T23:55:22.871Z,13.00
2023-05-20T23:57:50.020Z,13.00
